Time;durP1;ratioP1;P1;durP2;ratioP2;P2;SDS_P1;SDS_P2;PMS_P1;PMS_P2;Temp;Humidity;BMP_temperature;BMP_pressure;BME280_temperature;BME280_humidity;BME280_pressure;Samples;Min_cycle;Max_cycle;Signal;HPM_P1;HPM_P2
2022/11/11 00:00:50;;;;;;;13.98;6.30;;;9.30;99.90;;;;;;5117894;28;20142;-78
2022/11/11 00:03:16;;;;;;;16.98;7.97;;;9.30;99.90;;;;;;5117874;28;20058;-78
2022/11/11 00:05:41;;;;;;;14.20;7.32;;;9.30;99.90;;;;;;5117748;28;20043;-78
2022/11/11 00:08:07;;;;;;;12.98;6.85;;;9.30;99.90;;;;;;5117631;28;20051;-78
2022/11/11 00:10:33;;;;;;;17.13;7.30;;;9.20;99.90;;;;;;5117469;27;20082;-78
2022/11/11 00:13:04;;;;;;;15.88;7.47;;;9.20;99.90;;;;;;5116333;28;20036;-79
2022/11/11 00:15:30;;;;;;;12.50;6.25;;;9.30;99.90;;;;;;5117455;28;20085;-79
2022/11/11 00:26:12;;;;;;;12.50;7.20;;;9.30;99.90;;;;;;5118033;28;20047;-79
2022/11/11 00:28:38;;;;;;;17.23;7.18;;;9.30;99.90;;;;;;5117055;28;20100;-79
2022/11/11 00:31:06;;;;;;;15.93;7.30;;;9.60;99.90;;;;;;5117258;28;20083;-80
2022/11/11 00:33:32;;;;;;;12.27;7.15;;;9.40;99.90;;;;;;5117077;28;20083;-80
2022/11/11 00:35:58;;;;;;;14.45;7.75;;;9.40;99.90;;;;;;5117024;28;20055;-80
2022/11/11 00:41:09;;;;;;;12.35;7.13;;;9.60;99.90;;;;;;5116996;28;20056;-78
2022/11/11 00:43:34;;;;;;;17.45;7.75;;;9.50;99.90;;;;;;5116714;28;20036;-78
2022/11/11 00:51:29;;;;;;;15.38;7.78;;;9.50;99.90;;;;;;5116989;27;20083;-78
2022/11/11 00:53:54;;;;;;;12.82;7.10;;;9.50;99.90;;;;;;5117058;28;20080;-78
2022/11/11 00:56:21;;;;;;;16.75;8.10;;;9.60;99.90;;;;;;5116762;28;20071;-77
2022/11/11 00:58:47;;;;;;;11.32;7.40;;;9.50;99.90;;;;;;5116846;28;20048;-78
2022/11/11 01:01:12;;;;;;;14.63;7.47;;;9.70;99.90;;;;;;5116501;28;20047;-78
2022/11/11 01:03:38;;;;;;;15.13;7.90;;;9.80;99.90;;;;;;5116362;28;20373;-78
2022/11/11 01:06:05;;;;;;;17.83;7.60;;;9.60;99.90;;;;;;5116806;28;20043;-78
2022/11/11 01:08:31;;;;;;;13.50;8.32;;;9.60;99.90;;;;;;5116544;28;20188;-78
2022/11/11 01:10:57;;;;;;;15.75;7.75;;;9.60;99.90;;;;;;5116279;28;20131;-78
2022/11/11 01:13:25;;;;;;;20.60;8.70;;;9.50;99.90;;;;;;5116310;28;20153;-79
2022/11/11 01:15:56;;;;;;;20.67;8.65;;;9.50;99.90;;;;;;5116337;28;20056;-77
2022/11/11 01:18:24;;;;;;;18.30;9.13;;;9.40;99.90;;;;;;5116310;28;20044;-78
2022/11/11 01:21:01;;;;;;;16.27;8.63;;;9.40;99.90;;;;;;5116213;28;20120;-78
2022/11/11 01:23:28;;;;;;;23.05;9.02;;;9.30;99.90;;;;;;5116166;28;20122;-77
2022/11/11 01:25:54;;;;;;;18.17;9.45;;;9.40;99.90;;;;;;5116202;28;20043;-77
2022/11/11 01:28:20;;;;;;;16.85;9.15;;;9.30;99.90;;;;;;5114936;28;20039;-78
2022/11/11 01:30:45;;;;;;;17.63;8.93;;;9.20;99.90;;;;;;5117066;28;20055;-77
2022/11/11 01:33:11;;;;;;;22.30;9.60;;;9.20;99.90;;;;;;5116031;28;20395;-77
2022/11/11 01:35:38;;;;;;;18.38;9.20;;;9.20;99.90;;;;;;5116325;28;20043;-78
2022/11/11 01:38:03;;;;;;;16.77;9.70;;;9.10;99.90;;;;;;5115858;28;20559;-78
2022/11/11 01:40:29;;;;;;;16.02;9.18;;;9.10;99.90;;;;;;5116006;28;20083;-78
2022/11/11 01:43:03;;;;;;;21.27;9.30;;;9.20;99.90;;;;;;5115639;28;20479;-78
2022/11/11 01:45:44;;;;;;;16.05;9.10;;;9.30;99.90;;;;;;5115742;28;20036;-77
2022/11/11 01:51:11;;;;;;;19.27;9.88;;;9.00;99.90;;;;;;5115581;28;20130;-78
2022/11/11 01:53:36;;;;;;;18.00;9.48;;;8.90;99.90;;;;;;5115458;28;20123;-77
2022/11/11 01:56:03;;;;;;;21.15;9.35;;;8.90;99.90;;;;;;5114875;28;20078;-78
2022/11/11 01:58:29;;;;;;;23.08;10.57;;;8.80;99.90;;;;;;5115614;28;20169;-77
2022/11/11 02:00:57;;;;;;;16.70;10.23;;;8.80;99.90;;;;;;5115406;28;20074;-79
2022/11/11 02:03:24;;;;;;;22.77;10.80;;;8.80;99.90;;;;;;5115302;28;20036;-78
2022/11/11 02:05:54;;;;;;;20.30;10.80;;;8.80;99.90;;;;;;5115331;28;20503;-78
2022/11/11 02:08:31;;;;;;;22.13;10.75;;;8.80;99.90;;;;;;5116077;28;20126;-79
2022/11/11 02:11:12;;;;;;;17.75;10.73;;;8.80;99.90;;;;;;5115630;28;20108;-79
2022/11/11 02:16:25;;;;;;;24.15;11.00;;;8.80;99.90;;;;;;5115169;28;20453;-79
2022/11/11 02:18:52;;;;;;;18.40;10.73;;;8.80;99.90;;;;;;5115077;28;20048;-79
2022/11/11 02:21:31;;;;;;;27.80;11.53;;;9.00;99.90;;;;;;5115426;28;20360;-79
2022/11/11 02:24:14;;;;;;;18.92;12.10;;;8.70;99.90;;;;;;5114938;28;20046;-79
2022/11/11 02:26:42;;;;;;;20.63;11.52;;;8.70;99.90;;;;;;5115029;28;20047;-79
2022/11/11 02:29:12;;;;;;;23.45;12.85;;;8.80;99.90;;;;;;5114806;28;20055;-79
2022/11/11 02:31:38;;;;;;;22.77;13.18;;;8.70;99.90;;;;;;5115385;28;20051;-79
2022/11/11 02:34:04;;;;;;;24.38;13.45;;;8.70;99.90;;;;;;5114841;28;20036;-79
2022/11/11 02:36:29;;;;;;;19.27;11.88;;;8.80;99.90;;;;;;5114771;28;20048;-78
2022/11/11 02:38:55;;;;;;;26.65;13.98;;;8.70;99.90;;;;;;5114668;28;20043;-78
2022/11/11 02:44:12;;;;;;;30.13;14.50;;;8.70;99.90;;;;;;5097874;28;20043;-79
2022/11/11 02:46:38;;;;;;;28.40;14.23;;;8.70;99.90;;;;;;5114739;28;20130;-79
2022/11/11 02:49:03;;;;;;;27.08;13.40;;;8.80;99.90;;;;;;5114682;28;20048;-79
2022/11/11 02:51:29;;;;;;;25.70;12.85;;;8.80;99.90;;;;;;5114462;28;20491;-79
2022/11/11 02:53:57;;;;;;;25.80;13.60;;;8.80;99.90;;;;;;5114375;28;20126;-79
2022/11/11 02:59:08;;;;;;;29.65;13.93;;;8.80;99.90;;;;;;5114464;28;20410;-79
2022/11/11 03:01:34;;;;;;;27.25;13.75;;;8.80;99.90;;;;;;5114336;28;20046;-79
2022/11/11 03:03:59;;;;;;;29.52;13.82;;;8.90;99.90;;;;;;5114285;28;20043;-78
2022/11/11 03:06:25;;;;;;;25.65;14.10;;;8.90;99.90;;;;;;5114266;28;20043;-78
2022/11/11 03:08:50;;;;;;;25.27;14.00;;;8.90;99.90;;;;;;5113137;28;20080;-79
2022/11/11 03:11:26;;;;;;;25.15;15.57;;;8.90;99.90;;;;;;5114259;28;20159;-78
2022/11/11 03:13:53;;;;;;;27.83;15.63;;;9.00;99.90;;;;;;5114202;28;20488;-79
2022/11/11 03:19:02;;;;;;;29.30;15.10;;;9.00;99.90;;;;;;5114208;28;20048;-79
2022/11/11 03:21:28;;;;;;;26.23;14.95;;;9.10;99.90;;;;;;5114135;28;20560;-79
2022/11/11 03:23:54;;;;;;;30.15;15.93;;;9.10;99.90;;;;;;5114047;28;20130;-79
2022/11/11 03:26:20;;;;;;;29.75;14.68;;;9.20;99.90;;;;;;5114066;28;20040;-79
2022/11/11 03:28:45;;;;;;;33.50;16.75;;;9.60;99.90;;;;;;5113825;28;20404;-79
2022/11/11 03:31:11;;;;;;;27.45;16.45;;;9.30;99.90;;;;;;5114308;28;20044;-79
2022/11/11 03:33:36;;;;;;;27.33;14.82;;;9.30;99.90;;;;;;5114203;28;20475;-79
2022/11/11 03:36:02;;;;;;;29.98;17.13;;;9.30;99.90;;;;;;5113879;28;20547;-79
2022/11/11 03:38:28;;;;;;;28.02;15.75;;;9.40;99.90;;;;;;5113856;28;20050;-79
2022/11/11 03:40:55;;;;;;;26.67;16.50;;;9.60;99.90;;;;;;5113995;28;20048;-79
2022/11/11 03:43:23;;;;;;;31.00;17.67;;;9.20;99.90;;;;;;5113824;28;20054;-79
2022/11/11 03:45:54;;;;;;;30.73;16.55;;;9.40;99.90;;;;;;5114073;28;20044;-79
2022/11/11 03:48:20;;;;;;;25.05;16.00;;;9.50;99.90;;;;;;5113993;28;20489;-78
2022/11/11 03:50:49;;;;;;;39.13;18.23;;;9.50;99.90;;;;;;5114322;28;20043;-79
2022/11/11 03:53:16;;;;;;;28.63;17.60;;;9.50;99.90;;;;;;5113895;28;20130;-79
2022/11/11 03:55:42;;;;;;;;;;;9.50;99.90;;;;;;5114308;28;20043;-78
2022/11/11 03:58:08;;;;;;;28.70;17.25;;;9.50;99.90;;;;;;5113827;28;19926;-79
2022/11/11 04:00:34;;;;;;;29.17;16.25;;;9.70;99.90;;;;;;5113827;28;20078;-79
2022/11/11 04:10:21;;;;;;;29.27;17.63;;;9.60;99.90;;;;;;5113816;28;20043;-79
2022/11/11 04:11:41;;;;;;;33.28;17.25;;;9.70;99.90;;;;;;5113673;28;20398;-78
2022/11/11 04:16:57;;;;;;;30.42;17.50;;;9.70;99.90;;;;;;5113891;28;20186;-79
2022/11/11 04:22:07;;;;;;;31.80;16.90;;;9.80;99.90;;;;;;5117070;28;20614;-78
2022/11/11 04:27:18;;;;;;;32.33;17.67;;;9.80;99.90;;;;;;5117215;28;20086;-78
2022/11/11 04:29:46;;;;;;;29.35;18.02;;;10.30;99.90;;;;;;5117110;28;20059;-80
2022/11/11 04:35:08;;;;;;;30.27;17.48;;;9.80;99.90;;;;;;5117207;28;20043;-78
2022/11/11 04:37:36;;;;;;;29.02;17.70;;;9.80;99.90;;;;;;5117178;28;20433;-78
2022/11/11 04:42:47;;;;;;;29.05;17.73;;;9.80;99.90;;;;;;5116895;28;20134;-78
2022/11/11 04:45:29;;;;;;;34.08;18.05;;;9.80;99.90;;;;;;5117319;28;20204;-79
2022/11/11 04:48:02;;;;;;;31.33;17.98;;;9.90;99.90;;;;;;5116901;28;20051;-78
2022/11/11 04:50:35;;;;;;;26.45;16.70;;;9.90;99.90;;;;;;5116745;28;20059;-79
2022/11/11 04:53:03;;;;;;;32.50;17.10;;;9.90;99.90;;;;;;5116723;28;20077;-78
2022/11/11 04:58:13;;;;;;;28.65;16.88;;;9.90;99.90;;;;;;5116694;27;20048;-79
2022/11/11 05:00:39;;;;;;;33.73;17.23;;;10.00;99.90;;;;;;5116659;28;20132;-79
2022/11/11 05:03:22;;;;;;;25.63;15.43;;;9.90;99.90;;;;;;5116622;28;20083;-78
2022/11/11 05:11:24;;;;;;;30.75;17.13;;;10.10;99.90;;;;;;5116118;28;20487;-79
2022/11/11 05:22:10;;;;;;;32.42;16.90;;;10.20;99.90;;;;;;5116400;28;20084;-78
2022/11/11 05:27:20;;;;;;;28.70;16.40;;;9.70;99.90;;;;;;5116547;28;20051;-78
2022/11/11 05:29:46;;;;;;;29.48;17.15;;;10.00;99.90;;;;;;5115710;28;20043;-78
2022/11/11 05:32:19;;;;;;;29.30;16.93;;;9.90;99.90;;;;;;5114899;28;20520;-79
2022/11/11 05:34:45;;;;;;;30.33;17.35;;;10.00;99.90;;;;;;5115740;28;20293;-79
2022/11/11 05:37:10;;;;;;;28.45;16.90;;;10.00;99.90;;;;;;5115826;28;20109;-78
2022/11/11 05:39:36;;;;;;;28.00;16.42;;;10.00;99.90;;;;;;5115826;28;20040;-79
2022/11/11 05:42:02;;;;;;;30.88;17.20;;;9.90;99.90;;;;;;5114961;28;20423;-79
2022/11/11 05:44:28;;;;;;;29.50;16.70;;;10.00;99.90;;;;;;5115683;28;20043;-79
2022/11/11 05:46:53;;;;;;;30.23;15.68;;;9.90;99.90;;;;;;5115020;28;20043;-79
2022/11/11 05:49:19;;;;;;;28.58;16.60;;;10.00;99.90;;;;;;5115446;28;20031;-79
2022/11/11 05:51:45;;;;;;;30.65;17.15;;;10.10;99.90;;;;;;5115487;28;20131;-79
2022/11/11 05:54:13;;;;;;;25.75;16.38;;;10.00;99.90;;;;;;5115584;28;20047;-79
2022/11/11 05:56:38;;;;;;;;;;;9.90;99.90;;;;;;5116064;28;20372;-78
2022/11/11 05:59:05;;;;;;;27.60;15.70;;;10.00;99.90;;;;;;5116058;28;19924;-79
2022/11/11 06:01:31;;;;;;;29.02;15.43;;;10.00;99.90;;;;;;5114201;28;20057;-78
2022/11/11 06:03:57;;;;;;;26.55;15.93;;;10.00;99.90;;;;;;5115245;28;20044;-79
2022/11/11 06:06:22;;;;;;;28.48;15.32;;;10.00;99.90;;;;;;5115079;28;20165;-78
2022/11/11 06:08:50;;;;;;;29.77;17.13;;;10.00;99.90;;;;;;5115194;28;20050;-79
2022/11/11 06:11:16;;;;;;;33.88;16.35;;;9.90;99.90;;;;;;5114935;28;20471;-78
2022/11/11 06:13:41;;;;;;;26.13;15.85;;;10.00;99.90;;;;;;5115420;28;20042;-79
2022/11/11 06:16:07;;;;;;;34.47;16.95;;;10.00;99.90;;;;;;5115073;28;20566;-79
2022/11/11 06:18:33;;;;;;;25.73;15.65;;;10.00;99.90;;;;;;5115147;28;20434;-79
2022/11/11 06:21:02;;;;;;;31.98;16.20;;;10.00;99.90;;;;;;5115074;28;20058;-78
2022/11/11 06:23:28;;;;;;;24.00;15.32;;;10.00;99.90;;;;;;5114796;27;20039;-80
2022/11/11 06:26:12;;;;;;;26.33;15.38;;;10.00;99.90;;;;;;5114938;28;20082;-79
2022/11/11 06:28:45;;;;;;;26.50;15.60;;;10.00;99.90;;;;;;5114898;28;20104;-80
2022/11/11 06:31:14;;;;;;;26.33;15.88;;;10.00;99.90;;;;;;5114788;28;20055;-79
2022/11/11 06:33:40;;;;;;;22.23;14.15;;;10.00;99.90;;;;;;5113781;28;20495;-79
2022/11/11 06:36:07;;;;;;;28.80;13.98;;;10.00;99.90;;;;;;5115253;28;20071;-78
2022/11/11 06:38:33;;;;;;;24.02;15.15;;;10.00;99.90;;;;;;5114720;28;20047;-79
2022/11/11 06:40:58;;;;;;;26.73;15.75;;;10.00;99.90;;;;;;5114646;28;20093;-79
2022/11/11 06:43:24;;;;;;;26.27;14.95;;;10.00;99.90;;;;;;5114170;28;20484;-79
2022/11/11 06:45:52;;;;;;;21.58;14.00;;;10.00;99.90;;;;;;5114589;28;20479;-79
2022/11/11 06:48:19;;;;;;;26.75;15.52;;;10.00;99.90;;;;;;5114453;28;20047;-80
2022/11/11 06:50:44;;;;;;;24.95;14.43;;;10.00;99.90;;;;;;5114435;28;20044;-78
2022/11/11 06:53:12;;;;;;;24.15;14.27;;;10.00;99.90;;;;;;5114535;28;20384;-79
2022/11/11 06:55:38;;;;;;;23.55;14.63;;;10.00;99.90;;;;;;5114534;28;20498;-79
2022/11/11 06:58:22;;;;;;;27.70;15.83;;;10.00;99.90;;;;;;5114383;28;20051;-79
2022/11/11 07:00:49;;;;;;;26.08;15.68;;;10.00;99.90;;;;;;5114408;28;20051;-80
2022/11/11 07:03:16;;;;;;;22.48;14.43;;;10.00;99.90;;;;;;5114770;28;20043;-79
2022/11/11 07:05:43;;;;;;;23.05;14.57;;;10.00;99.90;;;;;;5114338;28;20044;-80
2022/11/11 07:08:12;;;;;;;23.10;14.27;;;10.00;99.90;;;;;;5114647;28;20105;-79
2022/11/11 07:10:40;;;;;;;24.58;14.90;;;10.00;99.90;;;;;;5113964;28;20086;-79
2022/11/11 07:13:06;;;;;;;24.83;14.43;;;10.20;99.90;;;;;;5114101;28;20036;-79
2022/11/11 07:15:33;;;;;;;24.30;14.57;;;10.00;99.90;;;;;;5114051;28;20048;-80
2022/11/11 07:17:59;;;;;;;26.02;14.90;;;9.80;99.90;;;;;;5114462;28;20096;-78
2022/11/11 07:20:24;;;;;;;27.20;15.10;;;10.00;99.90;;;;;;5114750;28;20051;-79
2022/11/11 07:22:52;;;;;;;23.52;13.73;;;10.00;99.90;;;;;;5113948;28;20043;-79
2022/11/11 07:25:18;;;;;;;21.73;14.35;;;10.00;99.90;;;;;;5114146;28;20040;-79
2022/11/11 07:27:44;;;;;;;25.25;14.50;;;10.00;99.90;;;;;;5114130;28;20039;-79
2022/11/11 07:30:10;;;;;;;26.25;14.60;;;10.00;99.90;;;;;;5114190;28;20188;-80
2022/11/11 07:32:37;;;;;;;26.15;14.02;;;10.00;99.90;;;;;;5113948;28;20040;-79
2022/11/11 07:35:03;;;;;;;25.98;14.30;;;10.10;99.90;;;;;;5114035;28;20088;-79
2022/11/11 07:37:30;;;;;;;20.83;12.70;;;10.10;99.90;;;;;;5113453;28;20051;-79
2022/11/11 07:39:55;;;;;;;;;;;10.10;99.90;;;;;;5114223;28;20768;-79
2022/11/11 07:42:21;;;;;;;24.90;13.77;;;10.10;99.90;;;;;;5114192;28;19920;-79
2022/11/11 07:44:46;;;;;;;23.95;13.93;;;10.10;99.90;;;;;;5113940;28;20040;-79
2022/11/11 07:47:12;;;;;;;24.38;13.70;;;10.10;99.90;;;;;;5114459;28;20070;-79
2022/11/11 07:49:38;;;;;;;22.15;13.52;;;10.10;99.90;;;;;;5114000;28;20048;-79
2022/11/11 07:52:03;;;;;;;29.17;13.85;;;10.10;99.90;;;;;;5114124;28;20506;-79
2022/11/11 07:54:29;;;;;;;24.42;14.10;;;10.10;99.90;;;;;;5115145;28;20031;-79
2022/11/11 07:56:54;;;;;;;26.25;13.93;;;10.20;99.90;;;;;;5116864;28;20052;-79
2022/11/11 07:59:20;;;;;;;27.42;14.18;;;10.10;99.90;;;;;;5117380;28;20043;-79
2022/11/11 08:01:45;;;;;;;25.83;14.30;;;10.10;99.90;;;;;;5117842;28;20036;-79
2022/11/11 08:04:11;;;;;;;31.27;13.93;;;10.10;99.90;;;;;;5117696;28;20484;-79
2022/11/11 08:06:37;;;;;;;26.98;13.73;;;10.10;99.90;;;;;;5117485;28;20567;-80
2022/11/11 08:09:02;;;;;;;23.30;13.70;;;10.10;99.90;;;;;;5116930;28;20074;-79
2022/11/11 08:14:12;;;;;;;22.98;14.45;;;10.20;99.90;;;;;;5117013;28;20503;-80
2022/11/11 08:16:38;;;;;;;25.23;13.98;;;10.10;99.90;;;;;;5117560;28;20072;-79
2022/11/11 08:19:03;;;;;;;24.75;13.95;;;10.10;99.90;;;;;;5117374;28;20395;-79
2022/11/11 08:21:29;;;;;;;24.67;13.93;;;10.10;99.90;;;;;;5117126;28;20134;-79
2022/11/11 08:23:55;;;;;;;22.67;13.25;;;10.40;99.90;;;;;;5116271;28;20051;-78
2022/11/11 08:26:22;;;;;;;28.38;13.98;;;10.10;99.90;;;;;;5117578;28;20059;-80
2022/11/11 08:28:47;;;;;;;;;;;10.10;99.90;;;;;;5118311;28;20044;-80
2022/11/11 08:31:13;;;;;;;25.60;14.35;;;10.20;99.90;;;;;;5118067;28;19988;-79
2022/11/11 08:33:39;;;;;;;25.70;13.88;;;10.20;99.90;;;;;;5118223;28;20044;-79
2022/11/11 08:36:06;;;;;;;23.77;14.80;;;10.20;99.90;;;;;;5117220;28;20094;-79
2022/11/11 08:38:32;;;;;;;24.83;13.88;;;10.20;99.90;;;;;;5117290;28;20510;-79
2022/11/11 08:41:03;;;;;;;21.67;14.23;;;10.20;99.90;;;;;;5117118;28;20048;-79
2022/11/11 08:43:31;;;;;;;27.38;13.65;;;10.30;99.90;;;;;;5117026;28;20039;-79
2022/11/11 08:45:58;;;;;;;22.85;14.55;;;10.20;99.90;;;;;;5116905;28;20043;-79
2022/11/11 08:48:23;;;;;;;20.17;13.32;;;10.30;99.90;;;;;;5117271;28;20092;-79
2022/11/11 08:50:51;;;;;;;24.92;14.93;;;10.20;99.90;;;;;;5116919;28;20036;-79
2022/11/11 08:53:17;;;;;;;24.83;15.07;;;10.30;99.90;;;;;;5115694;28;20100;-79
2022/11/11 08:55:43;;;;;;;27.10;14.13;;;10.30;99.90;;;;;;5115723;28;20052;-79
2022/11/11 08:58:10;;;;;;;20.30;14.25;;;10.30;99.90;;;;;;5116640;28;20051;-78
2022/11/11 09:00:36;;;;;;;23.73;14.75;;;10.30;99.90;;;;;;5116687;28;20046;-80
2022/11/11 09:03:06;;;;;;;26.00;14.00;;;10.20;99.90;;;;;;5116542;28;20040;-79
2022/11/11 09:05:33;;;;;;;25.92;15.23;;;10.40;99.90;;;;;;5116324;28;20064;-79
2022/11/11 09:08:06;;;;;;;29.63;14.77;;;10.40;99.90;;;;;;5116516;28;20051;-77
2022/11/11 09:10:32;;;;;;;25.35;15.18;;;10.40;99.90;;;;;;5116020;28;20130;-79
2022/11/11 09:12:58;;;;;;;29.52;15.85;;;10.40;99.90;;;;;;5116391;27;20131;-79
2022/11/11 09:15:25;;;;;;;27.80;14.35;;;10.40;99.90;;;;;;5116469;28;20036;-79
2022/11/11 09:17:51;;;;;;;26.38;14.90;;;10.50;99.90;;;;;;5116398;28;20094;-78
2022/11/11 09:20:17;;;;;;;24.85;16.13;;;10.50;99.90;;;;;;5116368;28;20079;-79
2022/11/11 09:22:45;;;;;;;22.83;14.85;;;10.50;99.90;;;;;;5116427;28;20088;-78
2022/11/11 09:25:10;;;;;;;;;;;11.10;99.90;;;;;;5116515;28;20039;-78
2022/11/11 09:27:36;;;;;;;30.85;16.42;;;11.20;99.90;;;;;;5116103;28;19973;-78
2022/11/11 09:30:03;;;;;;;28.60;15.35;;;10.50;99.90;;;;;;5116083;27;20059;-78
2022/11/11 09:32:28;;;;;;;27.08;15.18;;;10.50;99.90;;;;;;5116351;28;20441;-78
2022/11/11 09:34:54;;;;;;;23.20;14.50;;;10.90;99.90;;;;;;5115933;28;20108;-79
2022/11/11 09:37:20;;;;;;;22.63;13.93;;;10.60;99.90;;;;;;5115875;28;20055;-79
2022/11/11 09:39:46;;;;;;;26.08;15.70;;;10.60;99.90;;;;;;5114634;28;20035;-78
2022/11/11 09:42:27;;;;;;;24.25;14.95;;;10.60;99.90;;;;;;5115816;28;20119;-79
2022/11/11 09:45:19;;;;;;;21.02;13.35;;;10.60;99.90;;;;;;5115948;28;20043;-81
2022/11/11 09:48:12;;;;;;;24.00;14.80;;;10.60;99.90;;;;;;5079149;28;20059;-79
2022/11/11 09:50:40;;;;;;;23.45;13.35;;;10.60;99.90;;;;;;5116131;28;20040;-80
2022/11/11 09:53:06;;;;;;;21.95;12.48;;;10.60;99.90;;;;;;5115889;28;20112;-80
2022/11/11 09:56:14;;;;;;;24.23;13.55;;;10.50;99.90;;;;;;5115547;28;20040;-80
2022/11/11 09:58:44;;;;;;;25.98;13.15;;;10.60;99.90;;;;;;5032792;28;20052;-80
2022/11/11 10:01:23;;;;;;;22.85;13.38;;;10.90;99.90;;;;;;5102392;28;20047;-79
2022/11/11 10:03:59;;;;;;;20.10;12.75;;;10.70;99.90;;;;;;5115550;28;20035;-80
2022/11/11 10:06:32;;;;;;;21.77;12.80;;;10.70;99.90;;;;;;5115626;28;20090;-78
2022/11/11 10:09:06;;;;;;;22.52;12.90;;;10.70;99.90;;;;;;5115217;28;20126;-78
2022/11/11 10:11:50;;;;;;;21.27;12.57;;;10.70;99.90;;;;;;5115711;28;20086;-79
2022/11/11 10:14:16;;;;;;;18.52;11.73;;;10.80;99.90;;;;;;5115255;28;20040;-78
2022/11/11 10:17:00;;;;;;;26.33;12.35;;;10.70;99.90;;;;;;5114717;28;20167;-78
2022/11/11 10:19:31;;;;;;;16.98;11.90;;;10.70;99.90;;;;;;5115250;28;20108;-80
2022/11/11 10:22:00;;;;;;;20.00;12.10;;;10.70;99.90;;;;;;5115066;28;20047;-80
2022/11/11 10:24:31;;;;;;;19.88;12.40;;;10.80;99.90;;;;;;5114972;28;20036;-81
2022/11/11 10:27:03;;;;;;;17.80;11.40;;;10.70;99.90;;;;;;5115108;28;20047;-79
2022/11/11 10:29:39;;;;;;;18.83;12.32;;;10.70;99.90;;;;;;5113749;28;20054;-80
2022/11/11 10:32:20;;;;;;;17.02;11.57;;;10.70;99.90;;;;;;5114833;28;20407;-80
2022/11/11 10:34:46;;;;;;;16.13;11.35;;;10.80;99.90;;;;;;5114877;28;20047;-80
2022/11/11 10:37:24;;;;;;;19.48;11.13;;;10.80;99.90;;;;;;5114871;28;20046;-80
2022/11/11 10:40:22;;;;;;;16.48;11.05;;;10.80;99.90;;;;;;5115004;28;20048;-80
2022/11/11 10:42:48;;;;;;;18.27;10.27;;;10.80;99.90;;;;;;5114972;28;20051;-80
2022/11/11 10:45:28;;;;;;;17.98;10.25;;;11.00;99.90;;;;;;5114721;28;20040;-80
2022/11/11 10:48:07;;;;;;;17.42;11.23;;;11.10;99.90;;;;;;5114710;28;20365;-80
2022/11/11 10:50:42;;;;;;;16.70;10.57;;;11.30;99.90;;;;;;5113497;28;20043;-80
2022/11/11 10:53:22;;;;;;;16.08;10.82;;;11.30;99.90;;;;;;5114981;28;20507;-80
2022/11/11 10:55:56;;;;;;;15.43;10.88;;;11.50;99.90;;;;;;5114785;28;20047;-79
2022/11/11 10:58:33;;;;;;;16.30;10.48;;;11.60;99.90;;;;;;5114818;28;20047;-80
2022/11/11 11:01:02;;;;;;;17.23;10.40;;;11.70;99.90;;;;;;5114572;28;20051;-80
2022/11/11 11:03:42;;;;;;;15.88;10.30;;;11.90;99.90;;;;;;5114106;28;20046;-79
2022/11/11 11:06:26;;;;;;;14.20;9.95;;;11.90;99.90;;;;;;5114669;28;20483;-80
2022/11/11 11:08:56;;;;;;;14.57;10.23;;;12.00;99.90;;;;;;5114324;28;20135;-79
2022/11/11 11:11:37;;;;;;;17.80;9.88;;;12.10;99.90;;;;;;5114251;28;20079;-80
2022/11/11 11:14:11;;;;;;;16.63;10.65;;;12.20;99.90;;;;;;5114043;28;20552;-81
2022/11/11 11:16:43;;;;;;;13.57;9.68;;;12.50;99.90;;;;;;5114065;28;20540;-80
2022/11/11 11:19:25;;;;;;;15.52;9.38;;;12.20;99.90;;;;;;5113151;28;20043;-80
2022/11/11 11:21:52;;;;;;;13.48;9.43;;;12.30;99.90;;;;;;5114251;28;20096;-80
2022/11/11 11:24:24;;;;;;;13.63;9.43;;;12.30;99.90;;;;;;5114036;28;20048;-80
2022/11/11 11:26:53;;;;;;;15.75;9.15;;;12.40;99.90;;;;;;5114152;28;20051;-77
2022/11/11 11:29:37;;;;;;;14.38;9.88;;;12.40;99.90;;;;;;5117135;28;20050;-79
2022/11/11 11:32:13;;;;;;;14.60;8.82;;;12.40;99.90;;;;;;5117473;28;20132;-80
2022/11/11 11:34:52;;;;;;;14.83;9.37;;;12.40;99.90;;;;;;5117314;28;20055;-78
2022/11/11 11:37:21;;;;;;;13.02;9.32;;;12.50;99.90;;;;;;5118323;28;20046;-80
2022/11/11 11:39:48;;;;;;;15.48;8.73;;;12.50;99.90;;;;;;5118278;28;20093;-80
2022/11/11 11:42:37;;;;;;;14.45;8.88;;;12.40;99.90;;;;;;5118190;27;20081;-79
2022/11/11 11:45:19;;;;;;;13.23;9.10;;;12.50;99.90;;;;;;5118093;28;20039;-80
2022/11/11 11:48:06;;;;;;;11.23;9.23;;;12.50;99.90;;;;;;5118041;28;20387;-80
2022/11/11 11:50:56;;;;;;;12.70;8.85;;;12.50;99.90;;;;;;5118298;28;20055;-80
2022/11/11 11:53:27;;;;;;;16.67;9.38;;;12.40;99.90;;;;;;5117873;28;20035;-80
2022/11/11 11:56:18;;;;;;;12.48;8.70;;;12.40;99.90;;;;;;5118371;28;20552;-80
2022/11/11 11:58:43;;;;;;;15.60;9.23;;;12.40;99.90;;;;;;5118165;28;20124;-80
2022/11/11 12:01:34;;;;;;;14.05;8.32;;;12.40;99.90;;;;;;5117789;28;20467;-79
2022/11/11 12:04:26;;;;;;;13.68;8.38;;;12.40;99.90;;;;;;5117633;28;20044;-80
2022/11/11 12:07:10;;;;;;;14.05;7.70;;;12.40;99.90;;;;;;5118070;28;20078;-80
2022/11/11 12:09:53;;;;;;;10.82;8.15;;;12.40;99.90;;;;;;5116415;28;20043;-80
2022/11/11 12:13:00;;;;;;;13.60;8.25;;;12.50;99.90;;;;;;5116691;28;20131;-80
2022/11/11 12:15:38;;;;;;;13.95;8.70;;;12.40;99.90;;;;;;5117722;28;20051;-80
2022/11/11 12:18:26;;;;;;;13.98;8.10;;;12.40;99.90;;;;;;5117608;28;20176;-80
2022/11/11 12:21:10;;;;;;;13.63;7.87;;;12.40;99.90;;;;;;5117496;28;20050;-80
2022/11/11 12:24:10;;;;;;;15.73;8.20;;;12.30;99.90;;;;;;5117607;28;20297;-79
2022/11/11 12:26:44;;;;;;;14.80;7.82;;;12.30;99.90;;;;;;5117474;28;20134;-77
2022/11/11 12:29:16;;;;;;;10.45;7.40;;;12.30;99.90;;;;;;5117207;28;20463;-76
2022/11/11 12:31:52;;;;;;;15.45;8.48;;;12.30;99.90;;;;;;5117736;28;20552;-77
2022/11/11 12:34:25;;;;;;;11.70;8.13;;;12.30;99.90;;;;;;5117447;28;20050;-78
2022/11/11 12:37:01;;;;;;;12.23;8.07;;;12.30;99.90;;;;;;5117121;28;20048;-77
2022/11/11 12:40:06;;;;;;;15.98;7.82;;;12.30;99.90;;;;;;5116971;28;20497;-78
2022/11/11 12:43:16;;;;;;;11.25;7.70;;;12.30;99.90;;;;;;5117376;28;20586;-78
2022/11/11 12:45:54;;;;;;;10.52;7.82;;;12.30;99.90;;;;;;5113709;28;20138;-78
2022/11/11 12:48:35;;;;;;;11.32;7.65;;;12.70;99.90;;;;;;5117375;28;20134;-78
2022/11/11 12:51:00;;;;;;;14.43;7.75;;;12.40;99.90;;;;;;5117160;28;20040;-77
2022/11/11 12:53:35;;;;;;;13.57;7.63;;;12.40;99.90;;;;;;5116833;28;20047;-78
2022/11/11 12:56:32;;;;;;;10.85;7.07;;;12.40;99.90;;;;;;5116790;28;20039;-78
2022/11/11 12:59:17;;;;;;;12.05;6.45;;;12.50;99.90;;;;;;5117079;28;20070;-78
2022/11/11 13:02:15;;;;;;;10.77;6.60;;;12.40;99.90;;;;;;5116890;28;20046;-81
2022/11/11 13:05:06;;;;;;;12.45;7.18;;;12.50;99.90;;;;;;5116380;28;20043;-79
2022/11/11 13:07:35;;;;;;;11.23;6.70;;;12.50;99.90;;;;;;5116567;28;20464;-78
2022/11/11 13:10:30;;;;;;;9.20;6.50;;;12.50;99.90;;;;;;5116485;28;20503;-78
2022/11/11 13:13:16;;;;;;;9.13;6.05;;;12.50;99.90;;;;;;5116388;27;20051;-79
2022/11/11 13:15:42;;;;;;;11.32;7.13;;;12.50;99.90;;;;;;5116455;28;20047;-79
2022/11/11 13:18:16;;;;;;;10.75;6.28;;;12.50;99.90;;;;;;5116238;28;20045;-79
2022/11/11 13:20:57;;;;;;;8.82;5.70;;;12.60;99.90;;;;;;5116283;28;20044;-79
2022/11/11 13:23:22;;;;;;;10.02;5.70;;;12.50;99.90;;;;;;5116093;28;20112;-78
2022/11/11 13:25:53;;;;;;;13.68;6.15;;;12.60;99.90;;;;;;5116642;27;20040;-79
2022/11/11 13:28:44;;;;;;;10.57;5.93;;;12.60;99.90;;;;;;5116171;28;20071;-79
2022/11/11 13:31:14;;;;;;;13.07;5.70;;;12.60;99.90;;;;;;5107742;28;20051;-79
2022/11/11 13:33:46;;;;;;;10.27;6.20;;;12.60;99.90;;;;;;5115760;28;20456;-79
2022/11/11 13:36:15;;;;;;;10.52;6.30;;;12.90;99.90;;;;;;5115737;28;20079;-79
2022/11/11 13:38:53;;;;;;;10.77;6.32;;;12.50;99.90;;;;;;5115902;28;20043;-79
2022/11/11 13:41:40;;;;;;;10.70;6.43;;;12.50;99.90;;;;;;5115939;28;20084;-79
2022/11/11 13:44:08;;;;;;;9.88;6.28;;;12.70;99.90;;;;;;5115819;28;20466;-79
2022/11/11 13:46:45;;;;;;;11.20;6.45;;;12.60;99.90;;;;;;5116063;27;20067;-78
2022/11/11 13:49:43;;;;;;;10.27;5.88;;;12.30;99.90;;;;;;5116181;28;20046;-79
2022/11/11 13:52:24;;;;;;;12.63;5.70;;;12.30;99.90;;;;;;5114806;28;20403;-79
2022/11/11 13:55:15;;;;;;;8.93;6.03;;;12.30;99.90;;;;;;5115614;28;20035;-79
2022/11/11 13:57:51;;;;;;;11.27;6.15;;;12.20;99.90;;;;;;5104535;28;20407;-79
2022/11/11 14:00:16;;;;;;;12.48;6.03;;;12.20;99.90;;;;;;5115452;28;20044;-79
2022/11/11 14:02:42;;;;;;;8.90;5.78;;;12.20;99.90;;;;;;5115702;28;20093;-79
2022/11/11 14:05:08;;;;;;;8.30;6.50;;;12.20;99.90;;;;;;5115162;28;20039;-79
2022/11/11 14:07:43;;;;;;;10.30;5.75;;;12.20;99.90;;;;;;5115424;28;20485;-78